OIIS  Semnan  Airport

Semnan, Iran

Add Bookmark
ICAO OIIS
Type Airport
Status Operational
Latitude
35° 35' 27" N
35.591099
Longitude
53° 29' 42" E
53.495098
Local (DST + 5) UTC (GMT + 4)
May 23, 2015 07:19 May 23, 2015 14:49
Sunrise-Sunset Local UTC
Begin Civil Twilight 05:15 00:45
Sunrise 05:44 01:14
Sunset 08:01 15:31
End Civil Twilight 08:30 16:00
VFR
VFR
MVFR
MVFR
IFR
VFR
LIFR
VFR
Unknown
Unavailable

Current Weather

METAR Observed VFR
OIIS 230500Z 09002KT 9999 FEW035 28/03 Q1016 Sat, May 23, 2015 @ 05:00 UTC
(9 Hours, 49 Minutes ago)
Visual Flight Rules
Wind Visibility Clouds Conditions
090° at 2 knots (4 kph) 10 km or more
  • Few at 3,500 ft AGL
  • No significant weather
Temperatures Readings Precipitation
Current Temp
28°C
82°F
Dewpoint
3°C
37°F
Humidity 20%
Altimeter 30" Hg
Sea Level Pressure 1,016 mb
Field Elevation
1,115 m
3,658 ft
None Recorded
-
-

CheckWX.com is intended as a tool to help pilots better visualize weather data. It is not intended as a substitute for an official weather briefing obtained from a Flight Service Station. CheckWX.com does not meet the FAA requirements for an official pre-flight weather briefing. Therefore, it's important that pilots still call and obtain an official FSS pre-flight weather briefing.

© 2007-2015 CheckWX.com
14:49:08 UTC